createdAt,value
2019-03-30T00:01:26.202Z,50.94
2019-03-30T00:03:54.402Z,51.17
2019-03-30T00:06:22.456Z,50.64
2019-03-30T00:08:50.556Z,50.68
2019-03-30T00:11:19.644Z,50.54
2019-03-30T00:13:47.750Z,50.51
2019-03-30T00:16:15.837Z,51.05
2019-03-30T00:18:43.954Z,50.61
2019-03-30T00:21:12.043Z,50.81
2019-03-30T00:23:40.409Z,50.64
2019-03-30T00:26:08.446Z,50.46
2019-03-30T00:28:36.492Z,50.77
2019-03-30T00:31:04.611Z,50.47
2019-03-30T00:33:32.735Z,50.50
2019-03-30T00:36:00.729Z,50.47
2019-03-30T00:38:28.956Z,50.39
2019-03-30T00:40:57.018Z,50.44
2019-03-30T00:43:25.356Z,50.62
2019-03-30T00:45:53.454Z,50.41
2019-03-30T00:48:21.495Z,50.57
2019-03-30T00:50:49.518Z,50.46
2019-03-30T00:53:17.555Z,50.37
2019-03-30T00:55:45.572Z,50.50
2019-03-30T00:58:13.627Z,50.72
2019-03-30T01:00:41.749Z,50.38
2019-03-30T01:03:09.769Z,50.51
2019-03-30T01:05:37.790Z,50.39
2019-03-30T01:08:05.835Z,50.52
2019-03-30T01:10:33.873Z,50.43
2019-03-30T01:13:01.889Z,50.43
2019-03-30T01:15:30.070Z,50.36
2019-03-30T01:17:58.142Z,50.55
2019-03-30T01:20:26.159Z,50.78
2019-03-30T01:22:54.213Z,50.46
2019-03-30T01:25:22.220Z,50.48
2019-03-30T01:27:50.286Z,50.30
2019-03-30T01:30:23.472Z,50.44
2019-03-30T01:32:48.078Z,50.35
2019-03-30T01:35:16.211Z,50.60
2019-03-30T01:37:44.325Z,50.52
2019-03-30T01:40:12.665Z,50.40
2019-03-30T01:42:40.697Z,50.60
2019-03-30T01:45:08.937Z,50.29
2019-03-30T01:47:36.973Z,50.46
2019-03-30T01:50:16.505Z,50.25
2019-03-30T01:52:34.768Z,50.51
2019-03-30T01:55:02.812Z,50.39
2019-03-30T01:57:30.909Z,50.44
2019-03-30T01:59:58.973Z,50.47
2019-03-30T02:02:27.066Z,50.66
2019-03-30T02:04:55.144Z,50.38
2019-03-30T02:07:23.170Z,50.26
2019-03-30T02:09:51.196Z,50.44
2019-03-30T02:12:19.229Z,50.50
2019-03-30T02:14:47.383Z,50.57
2019-03-30T02:17:15.449Z,50.43
2019-03-30T02:19:43.479Z,50.66
2019-03-30T02:22:11.531Z,50.27
2019-03-30T02:24:39.557Z,50.54
2019-03-30T02:27:07.565Z,50.31
2019-03-30T02:29:35.784Z,50.22
2019-03-30T02:32:04.390Z,50.73
2019-03-30T02:34:32.408Z,50.23
2019-03-30T02:37:00.626Z,50.52
2019-03-30T02:39:28.717Z,50.62
2019-03-30T02:41:56.734Z,50.30
2019-03-30T02:44:24.802Z,50.19
2019-03-30T02:46:52.825Z,50.51
2019-03-30T02:49:20.861Z,50.38
2019-03-30T02:51:48.899Z,50.23
2019-03-30T02:54:16.925Z,50.28
2019-03-30T02:56:44.946Z,50.41
2019-03-30T02:59:12.998Z,50.62
2019-03-30T03:01:41.027Z,50.29
2019-03-30T03:04:09.056Z,50.15
2019-03-30T03:06:37.096Z,50.35
2019-03-30T03:09:06.885Z,50.31
2019-03-30T03:11:34.903Z,50.17
2019-03-30T03:14:02.952Z,50.34
2019-03-30T03:16:30.973Z,50.10
2019-03-30T03:18:59.006Z,50.26
2019-03-30T03:21:27.047Z,50.16
2019-03-30T03:23:55.344Z,50.09
2019-03-30T03:26:23.452Z,50.30
2019-03-30T03:28:51.827Z,50.15
2019-03-30T03:31:19.895Z,50.39
2019-03-30T03:33:47.941Z,50.38
2019-03-30T03:36:16.201Z,50.26
2019-03-30T03:38:44.220Z,50.48
2019-03-30T03:41:12.237Z,50.41
2019-03-30T03:43:40.363Z,50.11
2019-03-30T03:46:08.405Z,50.12
2019-03-30T03:48:36.452Z,50.03
2019-03-30T03:51:04.475Z,50.15
2019-03-30T03:53:32.520Z,49.98
2019-03-30T03:56:00.552Z,50.21
2019-03-30T03:58:28.606Z,50.08
2019-03-30T04:00:56.684Z,50.29
2019-03-30T04:03:24.700Z,50.21
2019-03-30T04:05:52.732Z,50.20
2019-03-30T04:08:21.102Z,50.01
2019-03-30T04:10:49.242Z,49.74
2019-03-30T04:13:17.301Z,49.80
2019-03-30T04:15:45.616Z,49.72
2019-03-30T04:18:13.909Z,49.91
2019-03-30T04:20:41.958Z,50.17
2019-03-30T04:23:09.994Z,49.72
2019-03-30T04:25:38.187Z,49.82
2019-03-30T04:28:06.468Z,49.90
2019-03-30T04:30:37.298Z,50.19
2019-03-30T04:33:05.298Z,49.76
2019-03-30T04:35:33.414Z,49.75
2019-03-30T04:38:01.828Z,49.91
2019-03-30T04:40:29.862Z,49.70
2019-03-30T04:42:57.892Z,49.67
2019-03-30T04:45:26.065Z,49.69
2019-03-30T04:47:54.134Z,50.13
2019-03-30T04:50:22.139Z,49.66
2019-03-30T04:52:50.206Z,49.74
2019-03-30T04:55:18.223Z,49.82
2019-03-30T04:57:49.881Z,49.74
2019-03-30T05:00:16.141Z,49.58
2019-03-30T05:02:44.151Z,49.66
2019-03-30T05:05:12.184Z,49.76
2019-03-30T05:07:40.367Z,49.74
2019-03-30T05:10:08.519Z,49.67
2019-03-30T05:12:36.534Z,49.83
2019-03-30T05:15:04.584Z,49.76
2019-03-30T05:17:46.248Z,49.77
2019-03-30T05:20:02.502Z,49.78
2019-03-30T05:22:30.632Z,49.96
2019-03-30T05:24:58.659Z,50.08
2019-03-30T05:27:26.687Z,50.00
2019-03-30T05:29:54.763Z,49.67
2019-03-30T05:32:22.779Z,49.94
2019-03-30T05:34:50.815Z,49.78
2019-03-30T05:37:18.851Z,49.90
2019-03-30T05:39:46.862Z,49.78
2019-03-30T05:42:15.375Z,49.71
2019-03-30T05:44:43.401Z,49.73
2019-03-30T05:47:11.515Z,49.82
2019-03-30T05:49:39.556Z,49.92
2019-03-30T05:52:07.607Z,49.78
2019-03-30T05:54:35.627Z,49.84
2019-03-30T05:57:03.657Z,49.87
2019-03-30T05:59:31.830Z,49.93
2019-03-30T06:01:59.985Z,49.79
2019-03-30T06:04:28.269Z,50.00
2019-03-30T06:06:56.333Z,49.92
2019-03-30T06:09:24.443Z,49.94
2019-03-30T06:11:52.438Z,49.98
2019-03-30T06:14:20.494Z,49.94
2019-03-30T06:16:48.508Z,50.15
2019-03-30T06:19:16.506Z,49.91
2019-03-30T06:21:44.627Z,49.95
2019-03-30T06:24:12.648Z,49.90
2019-03-30T06:26:40.713Z,50.00
2019-03-30T06:29:08.791Z,49.91
2019-03-30T06:31:36.831Z,50.16
2019-03-30T06:34:04.880Z,50.08
2019-03-30T06:36:32.984Z,50.08
2019-03-30T06:39:01.032Z,50.04
2019-03-30T06:41:29.074Z,50.00
2019-03-30T06:43:57.130Z,50.14
2019-03-30T06:46:25.203Z,50.02
2019-03-30T06:48:53.358Z,50.11
2019-03-30T06:51:21.518Z,50.11
2019-03-30T06:53:49.652Z,50.21
2019-03-30T06:56:17.701Z,50.21
2019-03-30T06:58:45.819Z,50.43
2019-03-30T07:01:13.895Z,50.30
2019-03-30T07:03:41.916Z,50.03
2019-03-30T07:06:09.981Z,50.03
2019-03-30T07:08:38.298Z,49.99
2019-03-30T07:11:20.223Z,50.44
2019-03-30T07:13:36.599Z,51.30
2019-03-30T07:16:04.596Z,51.68
2019-03-30T07:18:32.673Z,51.78
2019-03-30T07:21:00.686Z,52.68
2019-03-30T07:23:28.706Z,53.03
2019-03-30T07:25:56.759Z,52.34
2019-03-30T07:28:24.790Z,52.43
2019-03-30T07:30:52.813Z,51.96
2019-03-30T07:33:20.945Z,52.88
2019-03-30T07:35:49.050Z,52.12
2019-03-30T07:38:17.062Z,52.28
2019-03-30T07:40:45.123Z,52.00
2019-03-30T07:43:13.209Z,52.00
2019-03-30T07:45:41.244Z,51.94
2019-03-30T07:48:09.298Z,52.02
2019-03-30T07:50:37.325Z,51.82
2019-03-30T07:53:05.332Z,51.81
2019-03-30T07:55:33.516Z,51.72
2019-03-30T07:58:01.696Z,51.95
2019-03-30T08:00:31.083Z,52.11
2019-03-30T08:02:59.235Z,52.50
2019-03-30T08:05:27.280Z,52.31
2019-03-30T08:07:55.305Z,52.37
2019-03-30T08:10:23.359Z,52.35
2019-03-30T08:12:51.370Z,52.57
2019-03-30T08:15:19.494Z,52.41
2019-03-30T08:17:47.667Z,53.73
2019-03-30T08:20:15.775Z,54.04
2019-03-30T08:22:43.806Z,54.33
2019-03-30T08:25:11.838Z,51.62
2019-03-30T08:27:39.867Z,53.10
2019-03-30T08:30:07.970Z,53.07
2019-03-30T08:32:36.023Z,53.30
2019-03-30T08:35:04.081Z,53.33
2019-03-30T08:37:32.118Z,53.59
2019-03-30T08:40:00.424Z,53.52
2019-03-30T08:42:28.608Z,53.64
2019-03-30T08:44:56.678Z,53.49
2019-03-30T08:47:24.722Z,53.23
2019-03-30T08:49:52.728Z,53.37
2019-03-30T08:52:20.792Z,54.13
2019-03-30T08:54:48.890Z,53.20
2019-03-30T08:57:16.958Z,53.42
2019-03-30T08:59:44.985Z,53.51
2019-03-30T09:02:13.031Z,53.98
2019-03-30T09:04:41.089Z,54.37
2019-03-30T09:07:09.115Z,53.59
2019-03-30T09:09:37.160Z,54.23
2019-03-30T09:12:05.290Z,53.85
2019-03-30T09:14:33.496Z,54.04
2019-03-30T09:17:01.617Z,52.78
2019-03-30T09:19:29.665Z,53.21
2019-03-30T09:21:57.694Z,54.00
2019-03-30T09:24:25.722Z,55.33
2019-03-30T09:26:53.785Z,55.30
2019-03-30T09:29:21.940Z,55.02
2019-03-30T09:31:49.977Z,55.31
2019-03-30T09:34:18.115Z,55.19
2019-03-30T09:36:46.154Z,55.04
2019-03-30T09:39:14.254Z,54.39
2019-03-30T09:41:42.303Z,54.11
2019-03-30T09:44:10.311Z,53.93
2019-03-30T09:46:38.336Z,54.14
2019-03-30T09:49:06.417Z,53.81
2019-03-30T09:51:34.461Z,53.67
2019-03-30T09:54:02.535Z,53.91
2019-03-30T09:56:30.605Z,53.23
2019-03-30T09:58:58.671Z,53.17
2019-03-30T10:01:26.831Z,52.91
2019-03-30T10:03:54.859Z,53.02
2019-03-30T10:06:33.801Z,52.67
2019-03-30T10:08:52.759Z,52.79
2019-03-30T10:11:20.822Z,52.73
2019-03-30T10:13:49.014Z,53.64
2019-03-30T10:16:17.073Z,52.89
2019-03-30T10:18:45.112Z,53.12
2019-03-30T10:21:13.157Z,53.63
2019-03-30T10:23:41.244Z,53.18
2019-03-30T10:26:09.310Z,52.41
2019-03-30T10:28:37.360Z,52.46
2019-03-30T10:31:05.465Z,52.40
2019-03-30T10:33:33.540Z,52.85
2019-03-30T10:36:01.589Z,52.63
2019-03-30T10:38:29.815Z,52.23
2019-03-30T10:40:57.943Z,52.81
2019-03-30T10:43:26.043Z,52.20
2019-03-30T10:45:54.087Z,52.18
2019-03-30T10:48:22.124Z,52.80
2019-03-30T10:50:50.189Z,51.98
2019-03-30T10:53:18.264Z,52.71
2019-03-30T10:55:46.629Z,52.18
2019-03-30T10:58:14.664Z,52.21
2019-03-30T11:00:42.746Z,52.00
2019-03-30T11:03:10.818Z,51.82
2019-03-30T11:05:38.879Z,51.85
2019-03-30T11:08:07.009Z,52.58
2019-03-30T11:10:35.056Z,52.09
2019-03-30T11:13:03.356Z,51.72
2019-03-30T11:15:34.143Z,51.89
2019-03-30T11:18:01.163Z,51.59
2019-03-30T11:20:29.265Z,51.74
2019-03-30T11:22:57.365Z,51.72
2019-03-30T11:25:25.432Z,50.80
2019-03-30T11:27:53.745Z,50.99
2019-03-30T11:30:21.806Z,51.40
2019-03-30T11:32:49.975Z,51.85
2019-03-30T11:35:18.000Z,51.47
2019-03-30T11:37:46.041Z,51.40
2019-03-30T11:40:14.575Z,51.72
2019-03-30T11:42:42.675Z,51.63
2019-03-30T11:45:10.735Z,51.55
2019-03-30T11:47:38.853Z,51.16
2019-03-30T11:50:06.947Z,51.55
2019-03-30T11:52:35.036Z,51.25
2019-03-30T11:55:03.095Z,51.55
2019-03-30T11:57:31.151Z,51.18
2019-03-30T11:59:59.264Z,51.49
2019-03-30T12:02:28.459Z,51.39
2019-03-30T12:04:56.616Z,51.45
2019-03-30T12:07:24.999Z,51.17
2019-03-30T12:09:53.083Z,51.51
2019-03-30T12:12:21.143Z,51.69
2019-03-30T12:14:49.165Z,52.20
2019-03-30T12:17:17.204Z,51.05
2019-03-30T12:19:45.246Z,51.28
2019-03-30T12:22:13.271Z,51.66
2019-03-30T12:24:41.320Z,51.03
2019-03-30T12:27:09.366Z,50.95
2019-03-30T12:29:37.387Z,51.40
2019-03-30T12:32:05.474Z,51.32
2019-03-30T12:34:33.532Z,51.29
2019-03-30T12:37:01.600Z,51.38
2019-03-30T12:39:29.695Z,51.24
2019-03-30T12:41:57.765Z,51.09
2019-03-30T12:44:25.947Z,51.08
2019-03-30T12:46:54.024Z,51.00
2019-03-30T12:49:22.058Z,50.89
2019-03-30T12:51:50.098Z,50.72
2019-03-30T12:54:18.159Z,50.88
2019-03-30T12:56:49.317Z,50.79
2019-03-30T12:59:17.326Z,50.56
2019-03-30T13:01:45.397Z,50.55
2019-03-30T13:04:13.491Z,50.29
2019-03-30T13:06:41.533Z,50.53
2019-03-30T13:09:09.568Z,50.17
2019-03-30T13:11:37.617Z,50.17
2019-03-30T13:14:05.638Z,50.11
2019-03-30T13:16:33.728Z,50.25
2019-03-30T13:19:01.789Z,50.08
2019-03-30T13:21:32.355Z,50.06
2019-03-30T13:23:59.574Z,49.88
2019-03-30T13:26:27.627Z,49.75
2019-03-30T13:28:55.633Z,49.90
2019-03-30T13:31:23.657Z,49.81
2019-03-30T13:33:51.730Z,49.88
2019-03-30T13:36:21.798Z,49.83
2019-03-30T13:38:49.834Z,49.89
2019-03-30T13:41:17.873Z,49.87
2019-03-30T13:43:46.009Z,49.85
2019-03-30T13:46:14.040Z,49.75
2019-03-30T13:48:42.095Z,49.82
2019-03-30T13:51:10.122Z,49.72
2019-03-30T13:53:38.154Z,49.61
2019-03-30T13:56:16.606Z,49.66
2019-03-30T13:58:36.682Z,49.69
2019-03-30T14:01:04.899Z,49.66
2019-03-30T14:03:32.952Z,49.53
2019-03-30T14:06:00.985Z,49.65
2019-03-30T14:08:29.017Z,49.62
2019-03-30T14:10:58.061Z,49.65
2019-03-30T14:13:26.092Z,49.48
2019-03-30T14:15:54.200Z,49.49
2019-03-30T14:18:22.518Z,49.45
2019-03-30T14:20:50.588Z,49.44
2019-03-30T14:23:18.913Z,49.42
2019-03-30T14:25:46.978Z,49.43
2019-03-30T14:28:15.427Z,49.38
2019-03-30T14:30:43.712Z,49.37
2019-03-30T14:33:11.807Z,49.36
2019-03-30T14:35:39.826Z,49.33
2019-03-30T14:38:07.887Z,49.23
2019-03-30T14:40:36.164Z,49.23
2019-03-30T14:43:04.210Z,49.27
2019-03-30T14:45:32.236Z,49.33
2019-03-30T14:48:00.355Z,49.48
2019-03-30T14:50:28.398Z,50.18
2019-03-30T14:52:56.452Z,51.40
2019-03-30T14:55:24.524Z,51.51
2019-03-30T14:57:52.590Z,51.51
2019-03-30T15:00:23.763Z,51.44
2019-03-30T15:02:51.985Z,51.42
2019-03-30T15:05:20.153Z,51.37
2019-03-30T15:07:48.281Z,52.31
2019-03-30T15:10:16.357Z,52.92
2019-03-30T15:12:44.440Z,52.82
2019-03-30T15:15:12.434Z,52.61
2019-03-30T15:17:41.293Z,52.45
2019-03-30T15:20:10.390Z,52.31
2019-03-30T15:22:38.594Z,52.22
2019-03-30T15:25:06.634Z,52.12
2019-03-30T15:27:34.675Z,52.04
2019-03-30T15:30:02.706Z,51.96
2019-03-30T15:32:30.769Z,51.86
2019-03-30T15:34:58.808Z,51.77
2019-03-30T15:37:26.933Z,51.66
2019-03-30T15:39:55.025Z,51.60
2019-03-30T15:42:23.056Z,51.28
2019-03-30T15:44:51.138Z,51.22
2019-03-30T15:47:19.169Z,51.04
2019-03-30T15:49:47.192Z,50.84
2019-03-30T15:52:15.304Z,50.73
2019-03-30T15:54:43.439Z,51.37
2019-03-30T15:57:14.279Z,51.78
2019-03-30T15:59:41.374Z,51.88
2019-03-30T16:02:09.486Z,53.01
2019-03-30T16:04:37.526Z,53.90
2019-03-30T16:07:07.039Z,54.57
2019-03-30T16:09:35.243Z,55.68
2019-03-30T16:12:03.291Z,55.25
2019-03-30T16:14:31.355Z,55.08
2019-03-30T16:16:59.519Z,55.20
2019-03-30T16:19:27.565Z,55.76
2019-03-30T16:21:55.624Z,55.29
2019-03-30T16:24:23.658Z,54.67
2019-03-30T16:26:51.692Z,54.84
2019-03-30T16:29:19.788Z,54.42
2019-03-30T16:31:47.827Z,54.56
2019-03-30T16:34:15.909Z,55.46
2019-03-30T16:36:44.208Z,54.87
2019-03-30T16:39:12.309Z,55.29
2019-03-30T16:41:40.442Z,54.70
2019-03-30T16:44:08.493Z,54.73
2019-03-30T16:46:36.564Z,54.90
2019-03-30T16:49:04.678Z,54.20
2019-03-30T16:51:32.759Z,55.08
2019-03-30T16:54:00.826Z,54.41
2019-03-30T16:56:28.884Z,54.00
2019-03-30T16:58:57.065Z,53.38
2019-03-30T17:01:25.172Z,54.96
2019-03-30T17:03:53.320Z,55.27
2019-03-30T17:06:21.593Z,55.64
2019-03-30T17:08:49.743Z,55.18
2019-03-30T17:11:18.243Z,55.65
2019-03-30T17:13:46.274Z,56.56
2019-03-30T17:16:14.361Z,56.84
2019-03-30T17:18:42.391Z,56.39
2019-03-30T17:21:10.678Z,55.89
2019-03-30T17:23:38.991Z,56.31
2019-03-30T17:26:07.056Z,55.51
2019-03-30T17:28:35.072Z,55.69
2019-03-30T17:31:03.178Z,55.51
2019-03-30T17:33:31.254Z,56.19
2019-03-30T17:35:59.392Z,56.93
2019-03-30T17:38:27.435Z,56.05
2019-03-30T17:40:55.457Z,56.84
2019-03-30T17:43:23.753Z,56.76
2019-03-30T17:45:51.838Z,57.49
2019-03-30T17:48:19.869Z,57.28
2019-03-30T17:50:47.934Z,56.79
2019-03-30T17:53:15.990Z,57.32
2019-03-30T17:55:44.066Z,56.37
2019-03-30T17:58:13.551Z,53.82
2019-03-30T18:00:42.052Z,52.28
2019-03-30T18:03:10.090Z,51.23
2019-03-30T18:05:38.116Z,51.12
2019-03-30T18:08:06.187Z,50.69
2019-03-30T18:10:34.279Z,51.29
2019-03-30T18:13:02.323Z,50.23
2019-03-30T18:15:30.375Z,49.70
2019-03-30T18:17:58.406Z,50.48
2019-03-30T18:20:26.911Z,48.97
2019-03-30T18:22:55.054Z,50.13
2019-03-30T18:25:23.102Z,50.54
2019-03-30T18:27:51.121Z,51.06
2019-03-30T18:30:19.163Z,52.64
2019-03-30T18:32:47.189Z,52.82
2019-03-30T18:35:15.290Z,53.29
2019-03-30T18:37:43.345Z,51.94
2019-03-30T18:40:11.387Z,50.07
2019-03-30T18:42:39.418Z,48.27
2019-03-30T18:45:07.480Z,47.29
2019-03-30T18:47:35.537Z,48.40
2019-03-30T18:50:03.566Z,49.21
2019-03-30T18:52:31.641Z,48.36
2019-03-30T18:54:59.857Z,48.48
2019-03-30T18:57:27.898Z,48.29
2019-03-30T18:59:55.948Z,48.03
2019-03-30T19:02:24.145Z,48.04
2019-03-30T19:04:52.189Z,47.90
2019-03-30T19:07:20.295Z,48.35
2019-03-30T19:09:48.331Z,48.43
2019-03-30T19:12:16.345Z,48.27
2019-03-30T19:14:44.619Z,52.17
2019-03-30T19:17:12.699Z,49.55
2019-03-30T19:19:40.719Z,49.12
2019-03-30T19:22:08.842Z,50.71
2019-03-30T19:24:36.864Z,50.62
2019-03-30T19:27:04.898Z,51.61
2019-03-30T19:29:32.932Z,51.00
2019-03-30T19:32:00.950Z,52.83
2019-03-30T19:34:29.073Z,53.21
2019-03-30T19:36:57.120Z,51.87
2019-03-30T19:39:25.167Z,52.98
2019-03-30T19:41:53.289Z,52.06
2019-03-30T19:44:21.424Z,52.38
2019-03-30T19:46:49.828Z,53.62
2019-03-30T19:49:17.909Z,52.33
2019-03-30T19:51:45.999Z,49.69
2019-03-30T19:54:14.052Z,48.05
2019-03-30T19:56:42.126Z,47.69
2019-03-30T19:59:11.397Z,47.84
2019-03-30T20:01:39.600Z,48.56
2019-03-30T20:04:08.044Z,49.01
2019-03-30T20:06:36.106Z,48.42
2019-03-30T20:09:05.838Z,48.42
2019-03-30T20:11:34.223Z,48.43
2019-03-30T20:14:02.511Z,48.79
2019-03-30T20:16:30.606Z,49.54
2019-03-30T20:19:11.392Z,49.04
2019-03-30T20:21:28.469Z,49.01
2019-03-30T20:23:56.522Z,48.70
2019-03-30T20:26:24.544Z,49.29
2019-03-30T20:28:52.615Z,49.00
2019-03-30T20:31:20.658Z,48.47
2019-03-30T20:33:48.701Z,48.44
2019-03-30T20:36:16.718Z,48.91
2019-03-30T20:38:44.808Z,48.80
2019-03-30T20:41:12.942Z,48.48
2019-03-30T20:43:41.019Z,48.45
2019-03-30T20:46:09.226Z,48.58
2019-03-30T20:48:37.327Z,48.60
2019-03-30T20:51:05.419Z,48.48
2019-03-30T20:53:33.549Z,48.55
2019-03-30T20:56:01.991Z,48.77
2019-03-30T20:58:30.047Z,49.17
2019-03-30T21:00:58.097Z,48.88
2019-03-30T21:03:26.240Z,48.44
2019-03-30T21:05:54.306Z,50.97
2019-03-30T21:08:22.536Z,51.29
2019-03-30T21:10:50.706Z,51.86
2019-03-30T21:13:19.064Z,52.18
2019-03-30T21:15:47.175Z,52.50
2019-03-30T21:18:15.236Z,52.65
2019-03-30T21:20:43.345Z,52.61
2019-03-30T21:23:11.415Z,52.84
2019-03-30T21:25:39.489Z,53.17
2019-03-30T21:28:07.516Z,53.28
2019-03-30T21:30:35.555Z,53.21
2019-03-30T21:33:03.583Z,53.37
2019-03-30T21:35:31.630Z,53.37
2019-03-30T21:37:59.716Z,53.63
2019-03-30T21:40:27.741Z,53.51
2019-03-30T21:42:55.772Z,53.88
2019-03-30T21:45:23.885Z,54.05
2019-03-30T21:47:51.905Z,53.88
2019-03-30T21:50:19.972Z,53.98
2019-03-30T21:52:48.140Z,53.76
2019-03-30T21:55:16.159Z,53.97
2019-03-30T21:57:44.267Z,54.16
2019-03-30T22:00:12.340Z,54.18
2019-03-30T22:02:40.344Z,54.19
2019-03-30T22:05:08.417Z,54.35
2019-03-30T22:07:36.456Z,54.32
2019-03-30T22:10:04.777Z,54.41
2019-03-30T22:12:32.889Z,54.38
2019-03-30T22:15:00.947Z,54.23
2019-03-30T22:17:29.034Z,54.59
2019-03-30T22:19:57.056Z,54.53
2019-03-30T22:22:25.126Z,54.72
2019-03-30T22:24:53.164Z,54.79
2019-03-30T22:27:21.178Z,54.84
2019-03-30T22:29:49.262Z,54.87
2019-03-30T22:32:17.280Z,55.01
2019-03-30T22:34:45.426Z,55.34
2019-03-30T22:37:13.468Z,55.65
2019-03-30T22:39:41.524Z,55.20
2019-03-30T22:42:09.548Z,55.59
2019-03-30T22:44:37.686Z,55.53
2019-03-30T22:47:05.712Z,55.88
2019-03-30T22:49:34.074Z,55.57
2019-03-30T22:52:02.235Z,55.51
2019-03-30T22:54:30.294Z,55.30
2019-03-30T22:56:58.355Z,55.21
2019-03-30T22:59:26.438Z,54.83
2019-03-30T23:01:54.527Z,54.94
2019-03-30T23:04:22.661Z,55.00
2019-03-30T23:06:50.719Z,54.41
2019-03-30T23:09:18.755Z,54.37
2019-03-30T23:11:46.835Z,54.15
2019-03-30T23:14:14.907Z,53.18
2019-03-30T23:16:42.941Z,53.25
2019-03-30T23:19:10.962Z,52.77
2019-03-30T23:21:39.034Z,52.50
2019-03-30T23:24:07.461Z,52.52
2019-03-30T23:26:35.836Z,52.09
2019-03-30T23:29:03.886Z,52.62
2019-03-30T23:31:31.922Z,52.78
2019-03-30T23:34:00.055Z,53.82
2019-03-30T23:36:28.110Z,54.26
2019-03-30T23:38:56.158Z,53.85
2019-03-30T23:41:24.185Z,53.26
2019-03-30T23:43:52.212Z,53.04
2019-03-30T23:46:20.732Z,53.35
2019-03-30T23:48:48.762Z,53.34
2019-03-30T23:51:16.832Z,52.96
2019-03-30T23:53:44.976Z,53.15
2019-03-30T23:56:13.320Z,52.98
2019-03-30T23:58:41.428Z,52.82
